sensor_id;sensor_type;location;lat;lon;timestamp;P1;durP1;ratioP1;P2;durP2;ratioP2
4051;SDS011;2040;50.924;11.604;2023-02-03T00:00:47;1.27;;;0.97;;
4051;SDS011;2040;50.924;11.604;2023-02-03T00:03:12;1.03;;;0.90;;
4051;SDS011;2040;50.924;11.604;2023-02-03T00:05:38;0.90;;;0.90;;
4051;SDS011;2040;50.924;11.604;2023-02-03T00:08:05;0.90;;;0.90;;
4051;SDS011;2040;50.924;11.604;2023-02-03T00:10:32;1.47;;;1.37;;
4051;SDS011;2040;50.924;11.604;2023-02-03T00:13:00;2.40;;;1.10;;
4051;SDS011;2040;50.924;11.604;2023-02-03T00:15:26;6.73;;;1.53;;
4051;SDS011;2040;50.924;11.604;2023-02-03T00:17:51;1.43;;;1.13;;
4051;SDS011;2040;50.924;11.604;2023-02-03T00:20:17;1.27;;;1.17;;
4051;SDS011;2040;50.924;11.604;2023-02-03T00:22:42;2.60;;;1.73;;
4051;SDS011;2040;50.924;11.604;2023-02-03T00:25:08;2.40;;;1.50;;
4051;SDS011;2040;50.924;11.604;2023-02-03T00:27:33;1.03;;;0.97;;
4051;SDS011;2040;50.924;11.604;2023-02-03T00:29:59;2.10;;;1.43;;
4051;SDS011;2040;50.924;11.604;2023-02-03T00:32:24;1.50;;;1.40;;
4051;SDS011;2040;50.924;11.604;2023-02-03T00:34:50;2.00;;;1.80;;
4051;SDS011;2040;50.924;11.604;2023-02-03T00:37:16;4.70;;;1.63;;
4051;SDS011;2040;50.924;11.604;2023-02-03T00:39:41;2.97;;;2.00;;
4051;SDS011;2040;50.924;11.604;2023-02-03T00:42:07;3.10;;;2.40;;
4051;SDS011;2040;50.924;11.604;2023-02-03T00:44:32;3.73;;;2.10;;
4051;SDS011;2040;50.924;11.604;2023-02-03T00:46:58;3.43;;;2.97;;
4051;SDS011;2040;50.924;11.604;2023-02-03T00:49:24;4.67;;;2.10;;
4051;SDS011;2040;50.924;11.604;2023-02-03T00:51:49;2.30;;;2.00;;
4051;SDS011;2040;50.924;11.604;2023-02-03T00:54:15;7.57;;;2.87;;
4051;SDS011;2040;50.924;11.604;2023-02-03T00:56:41;3.23;;;1.93;;
4051;SDS011;2040;50.924;11.604;2023-02-03T00:59:06;4.70;;;2.77;;
4051;SDS011;2040;50.924;11.604;2023-02-03T01:01:32;3.10;;;1.97;;
4051;SDS011;2040;50.924;11.604;2023-02-03T01:03:58;7.40;;;2.50;;
4051;SDS011;2040;50.924;11.604;2023-02-03T01:06:24;5.10;;;2.43;;
4051;SDS011;2040;50.924;11.604;2023-02-03T01:08:50;7.70;;;2.17;;
4051;SDS011;2040;50.924;11.604;2023-02-03T01:11:17;4.63;;;2.33;;
4051;SDS011;2040;50.924;11.604;2023-02-03T01:13:45;5.67;;;2.73;;
4051;SDS011;2040;50.924;11.604;2023-02-03T01:16:12;5.67;;;2.30;;
4051;SDS011;2040;50.924;11.604;2023-02-03T01:18:39;4.67;;;2.30;;
4051;SDS011;2040;50.924;11.604;2023-02-03T01:23:32;2.67;;;1.90;;
4051;SDS011;2040;50.924;11.604;2023-02-03T01:26:01;3.63;;;2.17;;
4051;SDS011;2040;50.924;11.604;2023-02-03T01:28:27;2.43;;;1.80;;
4051;SDS011;2040;50.924;11.604;2023-02-03T01:30:53;3.80;;;2.00;;
4051;SDS011;2040;50.924;11.604;2023-02-03T01:33:18;3.00;;;2.17;;
4051;SDS011;2040;50.924;11.604;2023-02-03T01:35:44;5.07;;;2.50;;
4051;SDS011;2040;50.924;11.604;2023-02-03T01:38:09;4.03;;;2.23;;
4051;SDS011;2040;50.924;11.604;2023-02-03T01:40:40;3.63;;;2.13;;
4051;SDS011;2040;50.924;11.604;2023-02-03T01:43:08;3.53;;;2.40;;
4051;SDS011;2040;50.924;11.604;2023-02-03T01:45:34;4.17;;;2.70;;
4051;SDS011;2040;50.924;11.604;2023-02-03T01:48:00;4.30;;;2.03;;
4051;SDS011;2040;50.924;11.604;2023-02-03T01:50:27;6.13;;;2.83;;
4051;SDS011;2040;50.924;11.604;2023-02-03T01:52:58;5.90;;;3.20;;
4051;SDS011;2040;50.924;11.604;2023-02-03T01:55:36;2.90;;;2.20;;
4051;SDS011;2040;50.924;11.604;2023-02-03T01:58:19;4.00;;;2.17;;
4051;SDS011;2040;50.924;11.604;2023-02-03T02:00:49;4.10;;;2.10;;
4051;SDS011;2040;50.924;11.604;2023-02-03T02:03:20;4.60;;;2.43;;
4051;SDS011;2040;50.924;11.604;2023-02-03T02:05:49;3.17;;;1.87;;
4051;SDS011;2040;50.924;11.604;2023-02-03T02:08:20;2.70;;;1.93;;
4051;SDS011;2040;50.924;11.604;2023-02-03T02:10:47;6.03;;;2.33;;
4051;SDS011;2040;50.924;11.604;2023-02-03T02:13:13;4.97;;;2.63;;
4051;SDS011;2040;50.924;11.604;2023-02-03T02:23:59;4.80;;;2.53;;
4051;SDS011;2040;50.924;11.604;2023-02-03T02:26:56;4.37;;;2.83;;
4051;SDS011;2040;50.924;11.604;2023-02-03T02:29:39;4.97;;;2.67;;
4051;SDS011;2040;50.924;11.604;2023-02-03T02:32:27;5.43;;;2.27;;
4051;SDS011;2040;50.924;11.604;2023-02-03T02:35:23;3.60;;;2.50;;
4051;SDS011;2040;50.924;11.604;2023-02-03T02:38:57;3.80;;;2.70;;
4051;SDS011;2040;50.924;11.604;2023-02-03T02:43:46;5.40;;;2.73;;
4051;SDS011;2040;50.924;11.604;2023-02-03T02:46:43;5.60;;;3.73;;
4051;SDS011;2040;50.924;11.604;2023-02-03T02:49:13;4.20;;;2.97;;
4051;SDS011;2040;50.924;11.604;2023-02-03T02:51:44;9.63;;;3.60;;
4051;SDS011;2040;50.924;11.604;2023-02-03T02:54:13;5.27;;;2.97;;
4051;SDS011;2040;50.924;11.604;2023-02-03T02:56:42;5.83;;;3.60;;
4051;SDS011;2040;50.924;11.604;2023-02-03T02:59:12;7.50;;;3.57;;
4051;SDS011;2040;50.924;11.604;2023-02-03T03:01:38;7.03;;;4.07;;
4051;SDS011;2040;50.924;11.604;2023-02-03T03:04:05;5.87;;;3.83;;
4051;SDS011;2040;50.924;11.604;2023-02-03T03:06:38;8.30;;;4.27;;
4051;SDS011;2040;50.924;11.604;2023-02-03T03:09:13;9.17;;;4.47;;
4051;SDS011;2040;50.924;11.604;2023-02-03T03:11:44;5.17;;;3.60;;
4051;SDS011;2040;50.924;11.604;2023-02-03T03:14:18;6.40;;;4.00;;
4051;SDS011;2040;50.924;11.604;2023-02-03T03:16:46;7.73;;;4.40;;
4051;SDS011;2040;50.924;11.604;2023-02-03T03:19:18;6.03;;;4.23;;
4051;SDS011;2040;50.924;11.604;2023-02-03T03:21:48;6.80;;;3.90;;
4051;SDS011;2040;50.924;11.604;2023-02-03T03:24:18;11.37;;;5.00;;
4051;SDS011;2040;50.924;11.604;2023-02-03T03:26:50;10.77;;;5.97;;
4051;SDS011;2040;50.924;11.604;2023-02-03T03:29:25;7.73;;;4.67;;
4051;SDS011;2040;50.924;11.604;2023-02-03T03:31:59;6.30;;;4.20;;
4051;SDS011;2040;50.924;11.604;2023-02-03T03:34:25;14.30;;;5.10;;
4051;SDS011;2040;50.924;11.604;2023-02-03T03:47:52;14.80;;;5.80;;
4051;SDS011;2040;50.924;11.604;2023-02-03T03:50:24;6.97;;;4.63;;
4051;SDS011;2040;50.924;11.604;2023-02-03T03:52:56;15.70;;;5.90;;
4051;SDS011;2040;50.924;11.604;2023-02-03T03:55:24;12.23;;;4.90;;
4051;SDS011;2040;50.924;11.604;2023-02-03T03:57:58;9.17;;;6.20;;
4051;SDS011;2040;50.924;11.604;2023-02-03T04:00:27;8.70;;;4.40;;
4051;SDS011;2040;50.924;11.604;2023-02-03T04:02:58;6.50;;;4.70;;
4051;SDS011;2040;50.924;11.604;2023-02-03T04:05:28;10.90;;;5.17;;
4051;SDS011;2040;50.924;11.604;2023-02-03T04:07:54;6.40;;;4.13;;
4051;SDS011;2040;50.924;11.604;2023-02-03T04:12:56;5.80;;;3.90;;
4051;SDS011;2040;50.924;11.604;2023-02-03T04:15:21;7.20;;;4.57;;
4051;SDS011;2040;50.924;11.604;2023-02-03T04:17:47;6.47;;;4.30;;
4051;SDS011;2040;50.924;11.604;2023-02-03T04:20:13;7.60;;;4.47;;
4051;SDS011;2040;50.924;11.604;2023-02-03T04:22:39;6.13;;;4.10;;
4051;SDS011;2040;50.924;11.604;2023-02-03T04:25:05;8.90;;;3.90;;
4051;SDS011;2040;50.924;11.604;2023-02-03T04:27:31;5.03;;;3.30;;
4051;SDS011;2040;50.924;11.604;2023-02-03T04:29:58;4.77;;;3.47;;
4051;SDS011;2040;50.924;11.604;2023-02-03T04:32:24;5.47;;;3.50;;
4051;SDS011;2040;50.924;11.604;2023-02-03T04:34:50;6.53;;;4.30;;
4051;SDS011;2040;50.924;11.604;2023-02-03T04:37:15;6.83;;;3.93;;
4051;SDS011;2040;50.924;11.604;2023-02-03T04:39:41;5.33;;;3.30;;
4051;SDS011;2040;50.924;11.604;2023-02-03T04:42:06;5.77;;;3.67;;
4051;SDS011;2040;50.924;11.604;2023-02-03T04:44:32;6.70;;;3.40;;
4051;SDS011;2040;50.924;11.604;2023-02-03T04:46:57;5.23;;;3.37;;
4051;SDS011;2040;50.924;11.604;2023-02-03T04:49:23;5.13;;;3.20;;
4051;SDS011;2040;50.924;11.604;2023-02-03T04:51:48;3.80;;;2.80;;
4051;SDS011;2040;50.924;11.604;2023-02-03T04:54:14;5.13;;;2.80;;
4051;SDS011;2040;50.924;11.604;2023-02-03T04:56:39;4.93;;;2.87;;
4051;SDS011;2040;50.924;11.604;2023-02-03T04:59:05;4.13;;;3.10;;
4051;SDS011;2040;50.924;11.604;2023-02-03T05:01:31;6.80;;;3.43;;
4051;SDS011;2040;50.924;11.604;2023-02-03T05:03:57;5.00;;;2.83;;
4051;SDS011;2040;50.924;11.604;2023-02-03T05:06:23;5.27;;;3.20;;
4051;SDS011;2040;50.924;11.604;2023-02-03T05:08:50;4.30;;;3.07;;
4051;SDS011;2040;50.924;11.604;2023-02-03T05:11:16;3.23;;;2.67;;
4051;SDS011;2040;50.924;11.604;2023-02-03T05:13:42;2.97;;;2.67;;
4051;SDS011;2040;50.924;11.604;2023-02-03T05:16:07;4.60;;;2.70;;
4051;SDS011;2040;50.924;11.604;2023-02-03T05:18:33;3.57;;;2.53;;
4051;SDS011;2040;50.924;11.604;2023-02-03T05:20:58;2.93;;;2.10;;
4051;SDS011;2040;50.924;11.604;2023-02-03T05:23:24;4.43;;;3.17;;
4051;SDS011;2040;50.924;11.604;2023-02-03T05:25:49;2.80;;;2.13;;
4051;SDS011;2040;50.924;11.604;2023-02-03T05:28:15;5.27;;;2.33;;
4051;SDS011;2040;50.924;11.604;2023-02-03T05:30:40;7.17;;;2.20;;
4051;SDS011;2040;50.924;11.604;2023-02-03T05:33:06;2.40;;;1.80;;
4051;SDS011;2040;50.924;11.604;2023-02-03T05:35:31;3.10;;;2.10;;
4051;SDS011;2040;50.924;11.604;2023-02-03T05:37:57;5.73;;;2.17;;
4051;SDS011;2040;50.924;11.604;2023-02-03T05:40:23;2.27;;;1.30;;
4051;SDS011;2040;50.924;11.604;2023-02-03T05:43:08;1.73;;;1.50;;
4051;SDS011;2040;50.924;11.604;2023-02-03T05:45:33;3.33;;;1.57;;
4051;SDS011;2040;50.924;11.604;2023-02-03T05:47:59;1.40;;;1.30;;
4051;SDS011;2040;50.924;11.604;2023-02-03T05:50:27;1.50;;;1.40;;
4051;SDS011;2040;50.924;11.604;2023-02-03T05:52:57;1.97;;;1.87;;
4051;SDS011;2040;50.924;11.604;2023-02-03T05:55:29;1.70;;;1.60;;
4051;SDS011;2040;50.924;11.604;2023-02-03T05:57:55;2.83;;;1.63;;
4051;SDS011;2040;50.924;11.604;2023-02-03T06:00:22;5.03;;;1.90;;
4051;SDS011;2040;50.924;11.604;2023-02-03T06:02:51;2.00;;;1.63;;
4051;SDS011;2040;50.924;11.604;2023-02-03T06:05:22;2.60;;;2.20;;
4051;SDS011;2040;50.924;11.604;2023-02-03T06:07:48;3.60;;;1.90;;
4051;SDS011;2040;50.924;11.604;2023-02-03T06:10:14;1.67;;;1.50;;
4051;SDS011;2040;50.924;11.604;2023-02-03T06:12:41;2.50;;;1.60;;
4051;SDS011;2040;50.924;11.604;2023-02-03T06:15:07;3.27;;;1.73;;
4051;SDS011;2040;50.924;11.604;2023-02-03T06:17:33;1.97;;;1.37;;
4051;SDS011;2040;50.924;11.604;2023-02-03T06:20:00;3.73;;;2.20;;
4051;SDS011;2040;50.924;11.604;2023-02-03T06:22:27;2.03;;;1.80;;
4051;SDS011;2040;50.924;11.604;2023-02-03T06:24:53;4.00;;;1.70;;
4051;SDS011;2040;50.924;11.604;2023-02-03T06:27:19;2.13;;;1.73;;
4051;SDS011;2040;50.924;11.604;2023-02-03T06:29:44;2.70;;;1.70;;
4051;SDS011;2040;50.924;11.604;2023-02-03T06:32:10;2.23;;;2.03;;
4051;SDS011;2040;50.924;11.604;2023-02-03T06:34:35;1.80;;;1.50;;
4051;SDS011;2040;50.924;11.604;2023-02-03T06:37:01;7.10;;;2.03;;
4051;SDS011;2040;50.924;11.604;2023-02-03T06:39:27;2.60;;;1.90;;
4051;SDS011;2040;50.924;11.604;2023-02-03T06:41:52;3.97;;;2.00;;
4051;SDS011;2040;50.924;11.604;2023-02-03T06:44:20;2.30;;;1.80;;
4051;SDS011;2040;50.924;11.604;2023-02-03T06:46:46;4.03;;;1.83;;
4051;SDS011;2040;50.924;11.604;2023-02-03T06:49:11;2.20;;;1.77;;
4051;SDS011;2040;50.924;11.604;2023-02-03T06:51:37;3.00;;;2.07;;
4051;SDS011;2040;50.924;11.604;2023-02-03T06:54:03;2.43;;;2.23;;
4051;SDS011;2040;50.924;11.604;2023-02-03T06:56:29;3.33;;;2.40;;
4051;SDS011;2040;50.924;11.604;2023-02-03T06:58:54;2.97;;;2.37;;
4051;SDS011;2040;50.924;11.604;2023-02-03T07:01:21;2.40;;;1.80;;
4051;SDS011;2040;50.924;11.604;2023-02-03T07:03:47;4.17;;;2.23;;
4051;SDS011;2040;50.924;11.604;2023-02-03T07:06:13;2.83;;;2.27;;
4051;SDS011;2040;50.924;11.604;2023-02-03T07:08:39;5.47;;;2.13;;
4051;SDS011;2040;50.924;11.604;2023-02-03T07:11:05;1.43;;;1.33;;
4051;SDS011;2040;50.924;11.604;2023-02-03T07:13:31;4.13;;;1.73;;
4051;SDS011;2040;50.924;11.604;2023-02-03T07:15:57;2.30;;;1.50;;
4051;SDS011;2040;50.924;11.604;2023-02-03T07:18:22;4.00;;;1.80;;
4051;SDS011;2040;50.924;11.604;2023-02-03T07:20:49;3.53;;;2.17;;
4051;SDS011;2040;50.924;11.604;2023-02-03T07:23:15;2.17;;;1.97;;
4051;SDS011;2040;50.924;11.604;2023-02-03T07:25:41;3.53;;;1.90;;
4051;SDS011;2040;50.924;11.604;2023-02-03T07:28:06;7.43;;;2.20;;
4051;SDS011;2040;50.924;11.604;2023-02-03T07:30:32;2.20;;;1.60;;
4051;SDS011;2040;50.924;11.604;2023-02-03T07:32:58;4.70;;;2.30;;
4051;SDS011;2040;50.924;11.604;2023-02-03T07:35:23;5.87;;;2.57;;
4051;SDS011;2040;50.924;11.604;2023-02-03T07:37:49;1.77;;;1.63;;
4051;SDS011;2040;50.924;11.604;2023-02-03T07:40:15;1.90;;;1.40;;
4051;SDS011;2040;50.924;11.604;2023-02-03T07:42:45;3.63;;;1.90;;
4051;SDS011;2040;50.924;11.604;2023-02-03T07:45:12;5.63;;;2.00;;
4051;SDS011;2040;50.924;11.604;2023-02-03T07:47:40;1.50;;;1.40;;
4051;SDS011;2040;50.924;11.604;2023-02-03T07:50:06;3.07;;;1.50;;
4051;SDS011;2040;50.924;11.604;2023-02-03T07:52:33;3.03;;;1.70;;
4051;SDS011;2040;50.924;11.604;2023-02-03T07:54:58;4.70;;;2.00;;
4051;SDS011;2040;50.924;11.604;2023-02-03T07:57:24;1.63;;;1.53;;
4051;SDS011;2040;50.924;11.604;2023-02-03T07:59:49;3.50;;;1.93;;
4051;SDS011;2040;50.924;11.604;2023-02-03T08:02:15;5.73;;;1.80;;
4051;SDS011;2040;50.924;11.604;2023-02-03T08:04:40;2.40;;;1.80;;
4051;SDS011;2040;50.924;11.604;2023-02-03T08:07:06;3.47;;;1.67;;
4051;SDS011;2040;50.924;11.604;2023-02-03T08:09:31;4.23;;;1.40;;
4051;SDS011;2040;50.924;11.604;2023-02-03T08:11:57;2.33;;;1.93;;
4051;SDS011;2040;50.924;11.604;2023-02-03T08:14:22;1.40;;;1.30;;
4051;SDS011;2040;50.924;11.604;2023-02-03T08:16:48;4.80;;;2.00;;
4051;SDS011;2040;50.924;11.604;2023-02-03T08:19:13;2.47;;;1.90;;
4051;SDS011;2040;50.924;11.604;2023-02-03T08:21:39;3.00;;;1.83;;
4051;SDS011;2040;50.924;11.604;2023-02-03T08:24:05;3.70;;;1.33;;
4051;SDS011;2040;50.924;11.604;2023-02-03T08:26:30;1.73;;;1.63;;
4051;SDS011;2040;50.924;11.604;2023-02-03T08:28:56;1.50;;;1.40;;
4051;SDS011;2040;50.924;11.604;2023-02-03T08:31:21;2.87;;;1.73;;
4051;SDS011;2040;50.924;11.604;2023-02-03T08:33:47;1.40;;;1.30;;
4051;SDS011;2040;50.924;11.604;2023-02-03T08:36:12;7.07;;;2.30;;
4051;SDS011;2040;50.924;11.604;2023-02-03T08:38:38;2.67;;;1.10;;
4051;SDS011;2040;50.924;11.604;2023-02-03T08:41:12;3.97;;;1.73;;
4051;SDS011;2040;50.924;11.604;2023-02-03T08:43:40;3.27;;;1.90;;
4051;SDS011;2040;50.924;11.604;2023-02-03T08:46:06;1.60;;;1.50;;
4051;SDS011;2040;50.924;11.604;2023-02-03T08:48:33;2.27;;;1.30;;
4051;SDS011;2040;50.924;11.604;2023-02-03T08:50:59;3.37;;;1.50;;
4051;SDS011;2040;50.924;11.604;2023-02-03T08:53:24;5.87;;;1.70;;
4051;SDS011;2040;50.924;11.604;2023-02-03T08:55:50;2.80;;;1.63;;
4051;SDS011;2040;50.924;11.604;2023-02-03T08:58:16;1.53;;;1.43;;
4051;SDS011;2040;50.924;11.604;2023-02-03T09:00:42;2.27;;;1.50;;
4051;SDS011;2040;50.924;11.604;2023-02-03T09:03:08;6.63;;;1.60;;
4051;SDS011;2040;50.924;11.604;2023-02-03T09:05:34;1.43;;;1.20;;
4051;SDS011;2040;50.924;11.604;2023-02-03T09:08:00;1.47;;;1.37;;
4051;SDS011;2040;50.924;11.604;2023-02-03T09:10:26;2.43;;;1.60;;
4051;SDS011;2040;50.924;11.604;2023-02-03T09:12:51;3.73;;;1.70;;
4051;SDS011;2040;50.924;11.604;2023-02-03T09:15:17;4.97;;;1.60;;
4051;SDS011;2040;50.924;11.604;2023-02-03T09:17:43;1.73;;;1.60;;
4051;SDS011;2040;50.924;11.604;2023-02-03T09:20:08;1.90;;;1.53;;
4051;SDS011;2040;50.924;11.604;2023-02-03T09:22:37;2.80;;;1.80;;
4051;SDS011;2040;50.924;11.604;2023-02-03T09:25:02;2.50;;;1.60;;
4051;SDS011;2040;50.924;11.604;2023-02-03T09:27:28;6.17;;;1.50;;
4051;SDS011;2040;50.924;11.604;2023-02-03T09:29:54;4.60;;;1.70;;
4051;SDS011;2040;50.924;11.604;2023-02-03T09:32:20;5.13;;;1.30;;
4051;SDS011;2040;50.924;11.604;2023-02-03T09:34:46;1.73;;;1.63;;
4051;SDS011;2040;50.924;11.604;2023-02-03T09:37:11;2.80;;;1.40;;
4051;SDS011;2040;50.924;11.604;2023-02-03T09:39:37;8.50;;;1.40;;
4051;SDS011;2040;50.924;11.604;2023-02-03T09:47:13;1.63;;;1.30;;
4051;SDS011;2040;50.924;11.604;2023-02-03T09:49:46;5.03;;;1.40;;
4051;SDS011;2040;50.924;11.604;2023-02-03T09:52:18;1.80;;;1.43;;
4051;SDS011;2040;50.924;11.604;2023-02-03T09:57:52;4.10;;;1.00;;
4051;SDS011;2040;50.924;11.604;2023-02-03T10:00:26;2.30;;;1.47;;
4051;SDS011;2040;50.924;11.604;2023-02-03T10:03:02;1.13;;;0.90;;
4051;SDS011;2040;50.924;11.604;2023-02-03T10:08:22;2.40;;;0.90;;
4051;SDS011;2040;50.924;11.604;2023-02-03T10:11:16;2.73;;;0.90;;
4051;SDS011;2040;50.924;11.604;2023-02-03T10:16:40;1.10;;;1.00;;
4051;SDS011;2040;50.924;11.604;2023-02-03T10:19:29;1.00;;;0.90;;
4051;SDS011;2040;50.924;11.604;2023-02-03T10:22:12;1.40;;;1.00;;
4051;SDS011;2040;50.924;11.604;2023-02-03T10:24:52;1.63;;;0.93;;
4051;SDS011;2040;50.924;11.604;2023-02-03T10:27:29;2.40;;;1.40;;
4051;SDS011;2040;50.924;11.604;2023-02-03T10:30:12;1.40;;;1.00;;
4051;SDS011;2040;50.924;11.604;2023-02-03T10:32:44;1.47;;;1.00;;
4051;SDS011;2040;50.924;11.604;2023-02-03T10:35:10;1.67;;;0.97;;
4051;SDS011;2040;50.924;11.604;2023-02-03T10:37:57;1.27;;;0.90;;
4051;SDS011;2040;50.924;11.604;2023-02-03T10:40:23;1.23;;;0.90;;
4051;SDS011;2040;50.924;11.604;2023-02-03T10:42:50;1.10;;;0.90;;
4051;SDS011;2040;50.924;11.604;2023-02-03T10:45:36;1.30;;;0.93;;
4051;SDS011;2040;50.924;11.604;2023-02-03T10:48:03;2.00;;;0.90;;
4051;SDS011;2040;50.924;11.604;2023-02-03T10:50:31;1.37;;;0.80;;
4051;SDS011;2040;50.924;11.604;2023-02-03T10:53:18;1.07;;;0.73;;
4051;SDS011;2040;50.924;11.604;2023-02-03T10:55:47;0.80;;;0.73;;
4051;SDS011;2040;50.924;11.604;2023-02-03T10:58:18;0.80;;;0.80;;
4051;SDS011;2040;50.924;11.604;2023-02-03T11:01:10;0.80;;;0.80;;
4051;SDS011;2040;50.924;11.604;2023-02-03T11:03:40;0.83;;;0.83;;
4051;SDS011;2040;50.924;11.604;2023-02-03T11:06:11;2.37;;;0.80;;
4051;SDS011;2040;50.924;11.604;2023-02-03T11:08:42;0.93;;;0.70;;
4051;SDS011;2040;50.924;11.604;2023-02-03T11:11:13;0.70;;;0.70;;
4051;SDS011;2040;50.924;11.604;2023-02-03T11:16:18;1.67;;;0.90;;
4051;SDS011;2040;50.924;11.604;2023-02-03T11:21:32;0.90;;;0.90;;
4051;SDS011;2040;50.924;11.604;2023-02-03T11:24:17;1.00;;;1.00;;
4051;SDS011;2040;50.924;11.604;2023-02-03T11:26:44;1.63;;;0.70;;
4051;SDS011;2040;50.924;11.604;2023-02-03T11:29:32;0.87;;;0.70;;
4051;SDS011;2040;50.924;11.604;2023-02-03T11:32:00;1.50;;;0.90;;
4051;SDS011;2040;50.924;11.604;2023-02-03T11:34:29;0.90;;;0.70;;
4051;SDS011;2040;50.924;11.604;2023-02-03T11:36:57;0.67;;;0.60;;
4051;SDS011;2040;50.924;11.604;2023-02-03T11:39:55;0.50;;;0.50;;
4051;SDS011;2040;50.924;11.604;2023-02-03T11:42:37;1.23;;;0.70;;
4051;SDS011;2040;50.924;11.604;2023-02-03T11:45:21;0.97;;;0.60;;
4051;SDS011;2040;50.924;11.604;2023-02-03T11:50:22;2.50;;;0.70;;
4051;SDS011;2040;50.924;11.604;2023-02-03T11:52:57;1.20;;;1.10;;
4051;SDS011;2040;50.924;11.604;2023-02-03T11:58:45;1.20;;;0.77;;
4051;SDS011;2040;50.924;11.604;2023-02-03T12:04:42;0.87;;;0.77;;
4051;SDS011;2040;50.924;11.604;2023-02-03T12:07:35;2.00;;;0.60;;
4051;SDS011;2040;50.924;11.604;2023-02-03T12:10:15;2.87;;;0.87;;
4051;SDS011;2040;50.924;11.604;2023-02-03T12:13:23;2.20;;;0.90;;
4051;SDS011;2040;50.924;11.604;2023-02-03T12:19:03;0.80;;;0.80;;
4051;SDS011;2040;50.924;11.604;2023-02-03T12:21:42;0.70;;;0.70;;
4051;SDS011;2040;50.924;11.604;2023-02-03T12:29:48;1.50;;;0.93;;
4051;SDS011;2040;50.924;11.604;2023-02-03T12:35:28;1.00;;;0.80;;
4051;SDS011;2040;50.924;11.604;2023-02-03T12:38:02;1.17;;;1.00;;
4051;SDS011;2040;50.924;11.604;2023-02-03T12:40:59;1.27;;;1.17;;
4051;SDS011;2040;50.924;11.604;2023-02-03T12:43:43;1.40;;;1.00;;
4051;SDS011;2040;50.924;11.604;2023-02-03T12:46:17;1.10;;;1.00;;
4051;SDS011;2040;50.924;11.604;2023-02-03T12:48:57;1.30;;;1.00;;
4051;SDS011;2040;50.924;11.604;2023-02-03T12:51:40;0.90;;;0.90;;
4051;SDS011;2040;50.924;11.604;2023-02-03T12:56:56;1.33;;;1.23;;
4051;SDS011;2040;50.924;11.604;2023-02-03T12:59:36;2.10;;;1.00;;
4051;SDS011;2040;50.924;11.604;2023-02-03T13:02:13;1.63;;;1.47;;
4051;SDS011;2040;50.924;11.604;2023-02-03T13:04:48;6.50;;;1.30;;
4051;SDS011;2040;50.924;11.604;2023-02-03T13:09:55;3.37;;;1.10;;
4051;SDS011;2040;50.924;11.604;2023-02-03T13:12:44;0.87;;;0.87;;
4051;SDS011;2040;50.924;11.604;2023-02-03T13:20:21;4.40;;;1.10;;
4051;SDS011;2040;50.924;11.604;2023-02-03T13:22:49;1.37;;;1.23;;
4051;SDS011;2040;50.924;11.604;2023-02-03T13:27:56;3.00;;;1.43;;
4051;SDS011;2040;50.924;11.604;2023-02-03T13:31:23;1.30;;;1.00;;
4051;SDS011;2040;50.924;11.604;2023-02-03T13:37:01;2.33;;;1.40;;
4051;SDS011;2040;50.924;11.604;2023-02-03T13:39:51;4.23;;;1.30;;
4051;SDS011;2040;50.924;11.604;2023-02-03T13:42:37;3.53;;;0.80;;
4051;SDS011;2040;50.924;11.604;2023-02-03T13:47:54;1.17;;;0.77;;
4051;SDS011;2040;50.924;11.604;2023-02-03T13:50:27;3.50;;;0.97;;
4051;SDS011;2040;50.924;11.604;2023-02-03T13:55:31;4.00;;;0.87;;
4051;SDS011;2040;50.924;11.604;2023-02-03T13:58:05;2.77;;;0.90;;
4051;SDS011;2040;50.924;11.604;2023-02-03T14:03:15;1.27;;;1.00;;
4051;SDS011;2040;50.924;11.604;2023-02-03T14:05:46;7.80;;;1.30;;
4051;SDS011;2040;50.924;11.604;2023-02-03T14:08:55;0.60;;;0.60;;
4051;SDS011;2040;50.924;11.604;2023-02-03T14:19:10;3.30;;;1.00;;
4051;SDS011;2040;50.924;11.604;2023-02-03T14:21:38;1.17;;;0.83;;
4051;SDS011;2040;50.924;11.604;2023-02-03T14:24:10;2.47;;;1.20;;
4051;SDS011;2040;50.924;11.604;2023-02-03T14:29:21;1.33;;;1.07;;
4051;SDS011;2040;50.924;11.604;2023-02-03T14:31:52;5.63;;;1.60;;
4051;SDS011;2040;50.924;11.604;2023-02-03T14:34:30;3.43;;;1.60;;
4051;SDS011;2040;50.924;11.604;2023-02-03T14:37:16;12.13;;;1.30;;
4051;SDS011;2040;50.924;11.604;2023-02-03T14:42:32;3.43;;;1.10;;
4051;SDS011;2040;50.924;11.604;2023-02-03T14:45:30;9.60;;;1.97;;
4051;SDS011;2040;50.924;11.604;2023-02-03T14:48:34;7.33;;;1.57;;
4051;SDS011;2040;50.924;11.604;2023-02-03T14:57:05;5.27;;;1.90;;
4051;SDS011;2040;50.924;11.604;2023-02-03T15:05:36;5.50;;;1.57;;
4051;SDS011;2040;50.924;11.604;2023-02-03T15:08:02;11.00;;;2.30;;
4051;SDS011;2040;50.924;11.604;2023-02-03T15:10:29;12.30;;;2.27;;
4051;SDS011;2040;50.924;11.604;2023-02-03T15:13:27;5.43;;;1.40;;
4051;SDS011;2040;50.924;11.604;2023-02-03T15:15:58;5.10;;;1.77;;
4051;SDS011;2040;50.924;11.604;2023-02-03T15:21:01;5.00;;;1.10;;
4051;SDS011;2040;50.924;11.604;2023-02-03T15:23:29;6.00;;;2.57;;
4051;SDS011;2040;50.924;11.604;2023-02-03T15:26:08;7.57;;;1.93;;
4051;SDS011;2040;50.924;11.604;2023-02-03T15:28:39;9.43;;;1.67;;
4051;SDS011;2040;50.924;11.604;2023-02-03T15:31:13;1.67;;;1.23;;
4051;SDS011;2040;50.924;11.604;2023-02-03T15:33:44;5.87;;;1.60;;
4051;SDS011;2040;50.924;11.604;2023-02-03T15:36:35;6.67;;;1.67;;
4051;SDS011;2040;50.924;11.604;2023-02-03T15:39:32;6.33;;;2.13;;
4051;SDS011;2040;50.924;11.604;2023-02-03T15:44:59;12.10;;;2.23;;
4051;SDS011;2040;50.924;11.604;2023-02-03T15:47:34;12.87;;;2.90;;
4051;SDS011;2040;50.924;11.604;2023-02-03T15:50:31;8.00;;;2.93;;
4051;SDS011;2040;50.924;11.604;2023-02-03T15:53:18;5.20;;;1.50;;
4051;SDS011;2040;50.924;11.604;2023-02-03T15:55:51;6.30;;;2.10;;
4051;SDS011;2040;50.924;11.604;2023-02-03T15:58:25;14.57;;;3.23;;
4051;SDS011;2040;50.924;11.604;2023-02-03T16:00:53;9.03;;;2.00;;
4051;SDS011;2040;50.924;11.604;2023-02-03T16:03:26;3.93;;;1.73;;
4051;SDS011;2040;50.924;11.604;2023-02-03T16:06:08;10.33;;;2.57;;
4051;SDS011;2040;50.924;11.604;2023-02-03T16:08:44;6.20;;;2.20;;
4051;SDS011;2040;50.924;11.604;2023-02-03T16:11:20;8.20;;;2.60;;
4051;SDS011;2040;50.924;11.604;2023-02-03T16:13:48;8.23;;;1.83;;
4051;SDS011;2040;50.924;11.604;2023-02-03T16:16:17;13.50;;;2.40;;
4051;SDS011;2040;50.924;11.604;2023-02-03T16:18:51;5.33;;;1.57;;
4051;SDS011;2040;50.924;11.604;2023-02-03T16:21:26;6.63;;;1.97;;
4051;SDS011;2040;50.924;11.604;2023-02-03T16:23:54;13.40;;;2.27;;
4051;SDS011;2040;50.924;11.604;2023-02-03T16:26:23;3.77;;;1.60;;
4051;SDS011;2040;50.924;11.604;2023-02-03T16:29:10;15.57;;;1.90;;
4051;SDS011;2040;50.924;11.604;2023-02-03T16:31:55;7.13;;;1.90;;
4051;SDS011;2040;50.924;11.604;2023-02-03T16:34:40;6.03;;;1.57;;
4051;SDS011;2040;50.924;11.604;2023-02-03T16:37:26;4.03;;;1.40;;
4051;SDS011;2040;50.924;11.604;2023-02-03T16:40:13;9.73;;;1.83;;
4051;SDS011;2040;50.924;11.604;2023-02-03T16:43:07;7.20;;;1.90;;
4051;SDS011;2040;50.924;11.604;2023-02-03T16:45:56;11.40;;;1.77;;
4051;SDS011;2040;50.924;11.604;2023-02-03T16:48:41;13.20;;;1.80;;
4051;SDS011;2040;50.924;11.604;2023-02-03T16:51:26;8.53;;;1.40;;
4051;SDS011;2040;50.924;11.604;2023-02-03T16:54:13;10.27;;;1.90;;
4051;SDS011;2040;50.924;11.604;2023-02-03T16:56:39;7.30;;;2.27;;
4051;SDS011;2040;50.924;11.604;2023-02-03T16:59:05;6.83;;;1.87;;
4051;SDS011;2040;50.924;11.604;2023-02-03T17:01:31;7.00;;;1.50;;
4051;SDS011;2040;50.924;11.604;2023-02-03T17:03:56;7.90;;;2.47;;
4051;SDS011;2040;50.924;11.604;2023-02-03T17:06:22;5.73;;;2.23;;
4051;SDS011;2040;50.924;11.604;2023-02-03T17:08:47;15.40;;;2.57;;
4051;SDS011;2040;50.924;11.604;2023-02-03T17:11:17;19.13;;;3.30;;
4051;SDS011;2040;50.924;11.604;2023-02-03T17:13:45;8.23;;;1.60;;
4051;SDS011;2040;50.924;11.604;2023-02-03T17:16:12;12.30;;;2.47;;
4051;SDS011;2040;50.924;11.604;2023-02-03T17:18:40;5.17;;;1.70;;
4051;SDS011;2040;50.924;11.604;2023-02-03T17:21:08;13.37;;;2.20;;
4051;SDS011;2040;50.924;11.604;2023-02-03T17:23:35;4.47;;;1.70;;
4051;SDS011;2040;50.924;11.604;2023-02-03T17:26:00;13.07;;;2.50;;